Latest Coastal Weather Observations for Roebourne Airport

IDW60701

Issued at 2:53 am WST Wednesday 28 September 2016 (issued every 10 minutes, with the page automatically refreshed every 10 minutes)

About coastal observations | Map of coastal stations | Coastal observations for WA | Marine services | Other Formats
Station Details ID: 004090 Name: ROEBOURNE AERO Lat: -20.76 Lon: 117.16 Height: 10.7 m
Data from the previous 72 hours. | See also: Recent months at Roebourne Airport
Date/Time
WST
Temp
°C
Wind Pressure Rain since
9am
mm
Weather Cloud Vis
km
Sea
Height
m
Swell
Dir  Spd
kts
Gust
kts
hPa Trend Height
m
Period
s
Dir
28/02:30am 18.6 SW 4 4 1010.5 - 0.0 - - - - - - -
28/02:00am 19.1 WNW 3 3 1010.6 - 0.0 - - - - - - -
28/01:30am 19.0 WSW 3 4 1010.8 - 0.0 - - - - - - -
28/01:00am 18.4 SSW 5 6 1010.8 - 0.0 - - - - - - -
28/12:30am 18.7 SSW 4 6 1011.1 - 0.0 - - - - - - -
28/12:00am 19.4 CALM 0 0 1011.3 - 0.0 - - - - - - -
 
Date/Time
WST
Temp
°C
Wind Pressure Rain since
9am
mm
Weather Cloud Vis
km
Sea
Height
m
Swell
Dir  Spd
kts
Gust
kts
hPa Trend Height
m
Period
s
Dir
27/11:30pm 19.8 N 4 5 1011.6 - 0.0 - - - - - - -
27/11:00pm 20.6 NW 3 4 1012.0 - 0.0 - - - - - - -
27/10:30pm 21.8 W 4 6 1012.0 - 0.0 - - - - - - -
27/10:00pm 22.4 W 7 8 1012.0 - 0.0 - - - - - - -
27/09:30pm 22.5 W 4 5 1012.1 - 0.0 - - - - - - -
27/09:00pm 23.2 WNW 5 6 1011.9 - 0.0 - - - - - - -
27/08:30pm 24.0 WNW 7 8 1011.9 - 0.0 - - - - - - -
27/08:00pm 24.3 WNW 8 11 1011.6 - 0.0 - - - - - - -
27/07:30pm 24.4 WNW 7 9 1011.5 - 0.0 - - - - - - -
27/07:00pm 24.6 NW 8 11 1011.0 - 0.0 - - - - - - -
27/06:30pm 24.6 NW 9 11 1010.4 - 0.0 - - - - - - -
27/06:00pm 25.1 NW 11 14 1009.9 - 0.0 - - - - - - -
27/05:30pm 25.8 NNW 11 16 1009.6 - 0.0 - - - - - - -
27/05:00pm 26.5 NNW 13 18 1009.4 - 0.0 - - - - - - -
27/04:30pm 27.4 NNW 13 17 1009.3 - 0.0 - - - - - - -
27/04:00pm 27.9 N 15 18 1009.0 - 0.0 - - - - - - -
27/03:30pm 27.9 N 13 17 1009.0 - 0.0 - - - - - - -
27/03:00pm 28.9 N 13 16 1009.1 - 0.0 - - - - - - -
27/02:30pm 30.1 N 13 16 1009.1 - 0.0 - - - - - - -
27/02:00pm 30.3 N 13 15 1009.3 - 0.0 - - - - - - -
27/01:30pm 30.9 NNE 12 16 1009.7 - 0.0 - - - - - - -
27/01:00pm 31.2 N 14 18 1010.1 - 0.0 - - - - - - -
27/12:30pm 30.4 NNE 14 18 1010.5 - 0.0 - - - - - - -
27/12:00pm 30.2 NNE 16 20 1010.8 - 0.0 - - - - - - -
27/11:30am 30.4 NE 15 19 1011.1 - 0.0 - - - - - - -
27/11:00am 29.0 NNE 12 16 1011.5 - 0.0 - - - - - - -
27/10:30am 29.2 NE 11 14 1011.9 - 0.0 - - - - - - -
27/10:00am 29.0 ENE 9 13 1012.2 - 0.0 - - - - - - -
27/09:30am 28.3 ENE 10 14 1012.4 - 0.0 - - - - - - -
27/09:00am 26.7 ENE 11 14 1012.4 - 0.0 - - - - - - -
27/08:30am 26.2 E 9 12 1012.4 - 0.0 - - - - - - -
27/08:00am 25.2 E 8 11 1012.3 - 0.0 - - - - - - -
27/07:30am 23.6 ENE 6 8 1012.1 - 0.0 - - - - - - -
27/07:00am 19.7 E 4 5 1011.7 - 0.0 - - - - - - -
27/06:30am 17.1 E 4 5 1011.3 - 0.0 - - - - - - -
27/06:00am 16.8 CALM 0 3 1011.1 - 0.0 - - - - - - -
27/05:30am 17.3 NNW 2 4 1011.0 - 0.0 - - - - - - -
27/05:00am 16.1 ESE 5 7 1010.6 - 0.0 - - - - - - -
27/04:30am 16.6 E 6 7 1010.5 - 0.0 - - - - - - -
27/04:00am 17.3 ESE 8 9 1010.5 - 0.0 - - - - - - -
27/03:30am 16.1 ESE 7 9 1010.4 - 0.0 - - - - - - -
27/03:00am 15.2 SE 2 5 1010.2 - 0.0 - - - - - - -
27/02:30am 15.3 ESE 3 3 1010.3 - 0.0 - - - - - - -
27/02:00am 15.6 SE 3 4 1010.4 - 0.0 - - - - - - -
27/01:30am 16.8 SSW 5 6 1010.8 - 0.0 - - - - - - -
27/01:00am 16.3 SSE 4 5 1010.9 - 0.0 - - - - - - -
27/12:30am 17.0 ESE 8 8 1011.0 - 0.0 - - - - - - -
27/12:00am 17.4 SSE 5 6 1011.2 - 0.0 - - - - - - -
 
Date/Time
WST
Temp
°C
Wind Pressure Rain since
9am
mm
Weather Cloud Vis
km
Sea
Height
m
Swell
Dir  Spd
kts
Gust
kts
hPa Trend Height
m
Period
s
Dir
26/11:30pm 18.5 SW 3 4 1011.6 - 0.0 - - - - - - -
26/11:00pm 18.6 SSW 3 4 1011.7 - 0.0 - - - - - - -
26/10:30pm 19.0 S 2 4 1012.0 - 0.0 - - - - - - -
26/10:00pm 19.9 S 2 4 1012.0 - 0.0 - - - - - - -
26/09:30pm 21.9 CALM 0 3 1012.2 - 0.0 - - - - - - -
26/09:00pm 23.4 W 4 6 1011.9 - 0.0 - - - - - - -
26/08:30pm 24.4 W 6 7 1011.8 - 0.0 - - - - - - -
26/08:00pm 24.9 W 7 9 1011.5 - 0.0 - - - - - - -
26/07:30pm 23.8 NW 7 7 1011.3 - 0.0 - - - - - - -
26/07:00pm 24.4 N 7 8 1011.1 - 0.0 - - - - - - -
26/06:30pm 25.3 N 7 9 1010.5 - 0.0 - - - - - - -
26/06:00pm 26.6 N 8 9 1010.0 - 0.0 - - - - - - -
26/05:30pm 27.6 N 11 13 1009.6 - 0.0 - - - - - - -
26/05:00pm 28.2 N 11 15 1009.4 - 0.0 - - - - - - -
26/04:30pm 28.8 NNW 12 16 1009.0 - 0.0 - - - - - - -
26/04:00pm 29.9 NNW 12 16 1008.9 - 0.0 - - - - - - -
26/03:30pm 31.5 N 13 17 1008.7 - 0.0 - - - - - - -
26/03:00pm 32.7 NNE 11 18 1008.3 - 0.0 - - - - - - -
26/02:30pm 33.8 NNE 11 16 1008.3 - 0.0 - - - - - - -
26/02:00pm 34.2 NNE 11 16 1008.5 - 0.0 - - - - - - -
26/01:30pm 33.9 NE 9 17 1008.8 - 0.0 - - - - - - -
26/01:00pm 34.5 ESE 7 14 1009.2 - 0.0 - - - - - - -
26/12:30pm 34.0 E 12 19 1009.6 - 0.0 - - - - - - -
26/12:00pm 33.4 ESE 13 18 1010.1 - 0.0 - - - - - - -
26/11:30am 33.6 SE 13 20 1010.6 - 0.0 - - - - - - -
26/11:00am 33.0 SE 13 23 1010.7 - 0.0 - - - - - - -
26/10:30am 32.0 SE 13 23 1011.2 - 0.0 - - - - - - -
26/10:00am 31.0 SE 16 22 1011.3 - 0.0 - - - - - - -
26/09:30am 30.1 ESE 16 21 1011.6 - 0.0 - - - - - - -
26/09:00am 29.2 ESE 16 21 1011.4 - 0.0 - - - - - - -
26/08:30am 28.6 ESE 16 21 1011.4 - 0.0 - - - - - - -
26/08:00am 27.5 ESE 11 16 1011.1 - 0.0 - - - - - - -
26/07:30am 26.2 SE 7 11 1011.2 - 0.0 - - - - - - -
26/07:00am 23.4 S 3 5 1010.8 - 0.0 - - - - - - -
26/06:30am 21.3 S 4 6 1010.6 - 0.0 - - - - - - -
26/06:00am 20.6 SSW 5 6 1010.4 - 0.0 - - - - - - -
26/05:30am 20.7 SSW 7 7 1010.0 - 0.0 - - - - - - -
26/05:00am 21.1 SW 6 8 1009.7 - 0.0 - - - - - - -
26/04:30am 21.9 SW 7 7 1009.5 - 0.0 - - - - - - -
26/04:00am 22.0 SW 7 8 1009.2 - 0.0 - - - - - - -
26/03:30am 21.8 SW 7 8 1009.0 - 0.0 - - - - - - -
26/03:00am 21.7 WSW 5 6 1009.1 - 0.0 - - - - - - -
26/02:30am 22.2 WSW 7 9 1009.2 - 0.0 - - - - - - -
26/02:00am 22.6 WSW 8 12 1009.1 - 0.0 - - - - - - -
26/01:30am 22.4 WSW 9 11 1009.3 - 0.0 - - - - - - -
26/01:00am 22.5 WSW 10 14 1009.3 - 0.0 - - - - - - -
26/12:30am 22.5 WSW 10 13 1009.7 - 0.0 - - - - - - -
26/12:00am 22.0 W 10 13 1010.5 - 0.0 - - - - - - -
 
Date/Time
WST
Temp
°C
Wind Pressure Rain since
9am
mm
Weather Cloud Vis
km
Sea
Height
m
Swell
Dir  Spd
kts
Gust
kts
hPa Trend Height
m
Period
s
Dir
25/11:30pm 21.6 W 11 14 1010.6 - 0.0 - - - - - - -
25/11:00pm 21.5 W 13 17 1010.7 - 0.0 - - - - - - -
25/10:30pm 21.6 W 14 20 1011.0 - 0.0 - - - - - - -
25/10:00pm 21.4 W 13 18 1011.0 - 0.0 - - - - - - -
25/09:30pm 21.8 W 16 19 1011.1 - 0.0 - - - - - - -
25/09:00pm 22.2 W 15 19 1011.0 - 0.0 - - - - - - -
25/08:30pm 22.5 W 15 19 1010.8 - 0.0 - - - - - - -
25/08:00pm 22.8 WNW 14 19 1010.5 - 0.0 - - - - - - -
25/07:30pm 23.1 WNW 14 19 1010.4 - 0.0 - - - - - - -
25/07:00pm 23.8 WNW 15 18 1010.0 - 0.0 - - - - - - -
25/06:30pm 24.6 WNW 15 19 1009.6 - 0.0 - - - - - - -
25/06:00pm 25.7 WNW 17 22 1009.2 - 0.0 - - - - - - -
25/05:30pm 27.2 WNW 17 21 1008.7 - 0.0 - - - - - - -
25/05:00pm 28.3 WNW 17 21 1008.4 - 0.0 - - - - - - -
25/04:30pm 29.7 WNW 15 19 1008.3 - 0.0 - - - - - - -
25/04:00pm 29.9 NW 17 21 1008.0 - 0.0 - - - - - - -
25/03:30pm 30.9 NW 15 20 1007.8 - 0.0 - - - - - - -
25/03:00pm 31.8 NNW 15 21 1007.9 - 0.0 - - - - - - -
25/02:30pm 31.4 NNW 14 20 1008.0 - 0.0 - - - - - - -
25/02:00pm 31.6 NNW 14 20 1008.3 - 0.0 - - - - - - -
25/01:30pm 31.4 NNW 14 20 1008.7 - 0.0 - - - - - - -
25/01:00pm 31.4 NNW 12 16 1009.2 - 0.0 - - - - - - -
25/12:30pm 31.4 N 10 15 1009.7 - 0.0 - - - - - - -
25/12:00pm 30.4 NNE 10 14 1010.2 - 0.0 - - - - - - -
25/11:30am 30.8 NNE 10 15 1010.7 - 0.0 - - - - - - -
25/11:00am 30.6 NNW 6 10 1011.0 - 0.0 - - - - - - -
25/10:30am 30.0 W 4 6 1011.2 - 0.0 - - - - - - -
25/10:00am 28.2 NNW 4 6 1011.5 - 0.0 - - - - - - -
25/09:30am 26.5 WNW 4 6 1011.7 - 0.0 - - - - - - -
25/09:00am 25.5 S 5 7 1011.7 - 0.0 - - - - - - -
25/08:30am 24.3 SW 5 7 1011.5 - 0.0 - - - - - - -
25/08:00am 22.4 WSW 5 6 1011.3 - 0.0 - - - - - - -
25/07:30am 20.9 W 5 7 1010.9 - 0.0 - - - - - - -
25/07:00am 17.8 NW 3 4 1010.6 - 0.0 - - - - - - -
25/06:30am 15.2 NNW 5 6 1010.3 - 0.0 - - - - - - -
25/06:00am 15.8 W 6 7 1010.1 - 0.0 - - - - - - -
25/05:30am 16.5 WSW 7 8 1009.8 - 0.0 - - - - - - -
25/05:00am 16.8 WSW 7 10 1009.6 - 0.0 - - - - - - -
25/04:30am 17.1 WSW 7 8 1009.8 - 0.0 - - - - - - -
25/04:00am 16.8 WSW 4 5 1009.7 - 0.0 - - - - - - -
25/03:30am 17.2 SW 7 9 1009.8 - 0.0 - - - - - - -
25/03:00am 18.1 SW 6 9 1009.9 - 0.0 - - - - - - -

Other Formats:

Comma delimited format used in spreadsheet applications
http://www.bom.gov.au/fwo/IDW60701/IDW60701.94308.axf

JavaScript Object Notation format (JSON) in row-major order
http://www.bom.gov.au/fwo/IDW60701/IDW60701.94308.json